Time;durP1;ratioP1;P1;durP2;ratioP2;P2;SDS_P1;SDS_P2;PMS_P1;PMS_P2;Temp;Humidity;BMP_temperature;BMP_pressure;BME280_temperature;BME280_humidity;BME280_pressure;Samples;Min_cycle;Max_cycle;Signal;HPM_P1;HPM_P2
2022/01/06 00:00:35;;;;;;;39.60;5.93;;;;;;;-145.67;100.00;66521.78;5011117;28;20047;-72
2022/01/06 00:03:01;;;;;;;38.13;5.13;;;;;;;-145.67;100.00;66521.78;4997316;28;20036;-71
2022/01/06 00:05:26;;;;;;;39.47;5.05;;;;;;;-145.67;100.00;66521.78;4996609;28;20026;-71
2022/01/06 00:07:52;;;;;;;38.85;6.65;;;;;;;-145.67;100.00;66521.78;4994447;28;20037;-71
2022/01/06 00:10:18;;;;;;;31.35;4.90;;;;;;;-145.67;100.00;66521.78;4996681;28;20116;-72
2022/01/06 00:23:33;;;;;;;31.48;4.13;;;;;;;-145.67;100.00;66521.78;4996465;28;20041;-72
2022/01/06 00:26:00;;;;;;;37.97;5.40;;;;;;;-145.67;100.00;66521.78;4994810;28;20220;-73
2022/01/06 00:28:29;;;;;;;50.47;7.05;;;;;;;-145.67;100.00;66521.78;5010448;28;20044;-73
2022/01/06 00:30:57;;;;;;;36.08;5.15;;;;;;;-145.67;100.00;66521.78;4998443;28;20033;-72
2022/01/06 00:33:28;;;;;;;41.78;5.47;;;;;;;-145.67;100.00;66521.78;5005491;28;20026;-73
2022/01/06 00:35:54;;;;;;;37.97;5.15;;;;;;;-145.67;100.00;66521.78;5011151;28;20286;-73
2022/01/06 00:38:21;;;;;;;49.20;6.38;;;;;;;-145.67;100.00;66521.78;4995598;28;20026;-73
2022/01/06 00:40:47;;;;;;;38.45;5.88;;;;;;;-145.67;100.00;66521.78;4993828;28;20033;-71
2022/01/06 00:43:13;;;;;;;38.05;5.70;;;;;;;-145.67;100.00;66521.78;4995591;28;20103;-73
2022/01/06 00:45:39;;;;;;;54.53;6.38;;;;;;;-145.67;100.00;66521.78;4995736;28;20381;-73
2022/01/06 00:48:10;;;;;;;54.63;7.32;;;;;;;-145.67;100.00;66521.78;4995473;28;20816;-73
2022/01/06 00:50:37;;;;;;;47.67;6.75;;;;;;;-145.67;100.00;66521.78;4995795;28;20496;-72
2022/01/06 00:53:05;;;;;;;48.80;7.68;;;;;;;-145.67;100.00;66521.78;4988521;28;20034;-72
2022/01/06 00:55:34;;;;;;;54.45;7.75;;;;;;;-145.67;100.00;66521.78;5010584;28;20042;-71
2022/01/06 00:58:00;;;;;;;43.40;5.90;;;;;;;-145.67;100.00;66521.78;4995206;28;20434;-72
2022/01/06 01:00:37;;;;;;;38.00;5.43;;;;;;;-145.67;100.00;66521.78;4995748;28;20049;-72
2022/01/06 01:03:05;;;;;;;53.70;6.90;;;;;;;-145.67;100.00;66521.78;4995659;28;20421;-73
2022/01/06 01:05:33;;;;;;;49.85;6.93;;;;;;;-145.67;100.00;66521.78;4995471;28;20559;-72
2022/01/06 01:08:04;;;;;;;47.03;6.88;;;;;;;-145.67;100.00;66521.78;4995481;28;20038;-72
2022/01/06 01:10:29;;;;;;;46.85;5.35;;;;;;;-145.67;100.00;66521.78;4993747;28;20566;-72
2022/01/06 01:12:57;;;;;;;39.72;5.30;;;;;;;-145.67;100.00;66521.78;4995041;28;20038;-73
2022/01/06 01:15:23;;;;;;;40.20;5.57;;;;;;;-145.67;100.00;66521.78;5000260;28;20493;-72
2022/01/06 01:17:50;;;;;;;27.13;4.88;;;;;;;-145.67;100.00;66521.78;5004919;28;20052;-72
2022/01/06 01:20:17;;;;;;;30.67;3.90;;;;;;;-145.67;100.00;66521.78;4992670;28;20176;-72
2022/01/06 01:22:46;;;;;;;40.15;6.15;;;;;;;-145.67;100.00;66521.78;4994591;28;20044;-72
2022/01/06 01:25:14;;;;;;;42.35;6.38;;;;;;;-145.67;100.00;66521.78;4994660;28;20141;-72
2022/01/06 01:27:42;;;;;;;43.40;6.85;;;;;;;-145.67;100.00;66521.78;5009487;28;20997;-72
2022/01/06 01:30:12;;;;;;;36.28;4.75;;;;;;;-145.67;100.00;66521.78;5009797;28;20428;-72
2022/01/06 01:32:40;;;;;;;41.38;6.15;;;;;;;-145.67;100.00;66521.78;4995105;28;20040;-72
2022/01/06 01:35:08;;;;;;;23.90;3.47;;;;;;;-145.67;100.00;66521.78;4992934;28;20068;-71
2022/01/06 01:37:42;;;;;;;31.77;4.35;;;;;;;-145.67;100.00;66521.78;5009828;28;20084;-73
2022/01/06 01:40:11;;;;;;;42.05;5.65;;;;;;;-145.67;100.00;66521.78;4994171;28;20026;-72
2022/01/06 01:42:37;;;;;;;32.28;4.78;;;;;;;-145.67;100.00;66521.78;4999564;28;20067;-70
2022/01/06 01:45:05;;;;;;;41.45;6.25;;;;;;;-145.67;100.00;66521.78;5000318;28;20339;-70
2022/01/06 01:47:38;;;;;;;39.00;5.32;;;;;;;-145.67;100.00;66521.78;4993990;28;22021;-70
2022/01/06 01:50:13;;;;;;;31.10;4.10;;;;;;;-145.67;100.00;66521.78;4993278;28;20037;-69
2022/01/06 01:52:46;;;;;;;44.28;5.65;;;;;;;-145.67;100.00;66521.78;4994030;28;20117;-68
2022/01/06 01:55:18;;;;;;;35.10;5.20;;;;;;;-145.67;100.00;66521.78;4994358;28;20361;-70
2022/01/06 01:57:44;;;;;;;36.13;4.90;;;;;;;-145.67;100.00;66521.78;4994282;28;20465;-70
2022/01/06 02:00:12;;;;;;;52.60;6.20;;;;;;;-145.67;100.00;66521.78;5009760;28;20045;-70
2022/01/06 02:02:39;;;;;;;38.25;5.88;;;;;;;-145.67;100.00;66521.78;5003720;28;20040;-70
2022/01/06 02:05:05;;;;;;;33.80;5.45;;;;;;;-145.67;100.00;66521.78;4993898;28;20034;-70
2022/01/06 02:07:35;;;;;;;39.88;5.55;;;;;;;-145.67;100.00;66521.78;4984007;28;20021;-70
2022/01/06 02:10:05;;;;;;;21.83;3.65;;;;;;;-145.67;100.00;66521.78;4992135;28;20452;-70
2022/01/06 02:12:36;;;;;;;37.72;5.70;;;;;;;-145.67;100.00;66521.78;4994433;28;20137;-70
2022/01/06 02:15:09;;;;;;;28.65;4.90;;;;;;;-145.67;100.00;66521.78;5003499;28;20056;-70
2022/01/06 02:17:38;;;;;;;33.45;5.38;;;;;;;-145.67;100.00;66521.78;5008309;28;20033;-70
2022/01/06 02:20:09;;;;;;;28.42;5.45;;;;;;;-145.67;100.00;66521.78;4991702;28;20046;-70
2022/01/06 02:22:35;;;;;;;44.10;6.65;;;;;;;-145.67;100.00;66521.78;4992633;28;20064;-70
2022/01/06 02:25:14;;;;;;;38.53;5.18;;;;;;;-145.67;100.00;66521.78;4993135;28;20173;-69
2022/01/06 02:27:40;;;;;;;34.58;5.03;;;;;;;-145.67;100.00;66521.78;5009707;28;20316;-71
2022/01/06 02:30:06;;;;;;;41.35;5.28;;;;;;;-145.67;100.00;66521.78;4997309;28;20030;-70
2022/01/06 02:32:34;;;;;;;42.58;6.50;;;;;;;-145.67;100.00;66521.78;4992569;28;20160;-70
2022/01/06 02:35:05;;;;;;;35.35;4.80;;;;;;;-145.67;100.00;66521.78;5003017;28;20045;-70
2022/01/06 02:37:32;;;;;;;46.55;6.13;;;;;;;-145.67;100.00;66521.78;4999487;28;20068;-71
2022/01/06 02:40:00;;;;;;;36.35;6.03;;;;;;;-145.67;100.00;66521.78;4994471;28;20041;-70
2022/01/06 02:42:30;;;;;;;47.00;6.72;;;;;;;-145.67;100.00;66521.78;5008369;28;20120;-70
2022/01/06 02:44:58;;;;;;;39.60;5.75;;;;;;;-145.67;100.00;66521.78;5003190;28;20076;-70
2022/01/06 02:47:28;;;;;;;49.20;5.88;;;;;;;-145.67;100.00;66521.78;4991788;28;20424;-69
2022/01/06 02:49:58;;;;;;;37.78;5.25;;;;;;;-145.67;100.00;66521.78;4999125;28;20080;-69
2022/01/06 02:52:26;;;;;;;34.30;5.65;;;;;;;-145.67;100.00;66521.78;4993524;28;20109;-69
2022/01/06 02:54:53;;;;;;;36.60;4.70;;;;;;;-145.67;100.00;66521.78;4995940;28;20049;-69
2022/01/06 02:57:19;;;;;;;53.38;6.30;;;;;;;-145.67;100.00;66521.78;4997222;28;20029;-70
2022/01/06 02:59:44;;;;;;;43.65;5.75;;;;;;;-145.67;100.00;66521.78;4997984;28;20034;-70
2022/01/06 03:02:10;;;;;;;40.30;5.22;;;;;;;-145.67;100.00;66521.78;4996785;28;20445;-70
2022/01/06 03:04:40;;;;;;;38.53;5.72;;;;;;;-145.67;100.00;66521.78;4996777;28;20111;-70
2022/01/06 03:07:07;;;;;;;48.90;6.57;;;;;;;-145.67;100.00;66521.78;5002368;28;20030;-69
2022/01/06 03:09:40;;;;;;;60.17;7.90;;;;;;;-145.67;100.00;66521.78;4995078;28;20041;-70
2022/01/06 03:12:11;;;;;;;41.92;5.15;;;;;;;-145.67;100.00;66521.78;4997011;28;20064;-70
2022/01/06 03:14:39;;;;;;;47.45;6.82;;;;;;;-145.67;100.00;66521.78;4997233;28;20177;-69
2022/01/06 03:17:05;;;;;;;48.45;6.55;;;;;;;-145.67;100.00;66521.78;4995333;28;20038;-70
2022/01/06 03:19:30;;;;;;;46.17;6.75;;;;;;;-145.67;100.00;66521.78;4995185;28;20405;-71
2022/01/06 03:21:56;;;;;;;48.83;6.97;;;;;;;-145.67;100.00;66521.78;5011809;28;20039;-69
2022/01/06 03:24:22;;;;;;;34.72;5.85;;;;;;;-145.67;100.00;66521.78;4996550;28;20067;-70
2022/01/06 03:26:47;;;;;;;54.15;5.53;;;;;;;-145.67;100.00;66521.78;4997122;28;20482;-69
2022/01/06 03:29:13;;;;;;;51.38;7.53;;;;;;;-145.67;100.00;66521.78;4995582;28;20026;-70
2022/01/06 03:31:42;;;;;;;32.47;5.00;;;;;;;-145.67;100.00;66521.78;4996010;28;20164;-69
2022/01/06 03:34:12;;;;;;;46.53;6.25;;;;;;;-145.67;100.00;66521.78;4994746;28;20025;-69
2022/01/06 03:36:37;;;;;;;33.78;5.05;;;;;;;-145.67;100.00;66521.78;5010907;28;20120;-70
2022/01/06 03:39:03;;;;;;;59.08;7.60;;;;;;;-145.67;100.00;66521.78;5011452;28;20198;-69
2022/01/06 03:41:33;;;;;;;28.35;4.35;;;;;;;-145.67;100.00;66521.78;4996086;28;22446;-70
2022/01/06 03:44:01;;;;;;;41.58;5.80;;;;;;;-145.67;100.00;66521.78;5010766;28;20037;-70
2022/01/06 03:46:29;;;;;;;37.47;5.78;;;;;;;-145.67;100.00;66521.78;4994416;28;20117;-69
2022/01/06 03:48:57;;;;;;;33.20;6.30;;;;;;;-145.67;100.00;66521.78;4994780;28;20036;-70
2022/01/06 03:51:23;;;;;;;42.85;6.68;;;;;;;-145.67;100.00;66521.78;5010458;28;20040;-70
2022/01/06 03:53:50;;;;;;;38.70;5.38;;;;;;;-145.67;100.00;66521.78;5006155;28;20126;-70
2022/01/06 03:56:18;;;;;;;48.90;6.10;;;;;;;-145.67;100.00;66521.78;4996127;28;20037;-70
2022/01/06 03:58:44;;;;;;;45.03;6.00;;;;;;;-145.67;100.00;66521.78;4996212;28;20029;-70
2022/01/06 04:01:10;;;;;;;48.00;5.55;;;;;;;-145.67;100.00;66521.78;4994730;28;20373;-70
2022/01/06 04:03:38;;;;;;;37.47;5.88;;;;;;;-145.67;100.00;66521.78;4995560;28;20029;-70
2022/01/06 04:06:06;;;;;;;38.40;5.38;;;;;;;-145.67;100.00;66521.78;4995802;28;20116;-69
2022/01/06 04:08:31;;;;;;;39.58;4.45;;;;;;;-145.67;100.00;66521.78;4993916;28;20119;-69
2022/01/06 04:10:57;;;;;;;43.85;4.93;;;;;;;-145.67;100.00;66521.78;4995959;28;20041;-70
2022/01/06 04:13:23;;;;;;;40.45;5.30;;;;;;;-145.67;100.00;66521.78;4995178;28;20046;-69
2022/01/06 04:15:49;;;;;;;36.60;5.43;;;;;;;-145.67;100.00;66521.78;4994125;28;20041;-70
2022/01/06 04:18:14;;;;;;;48.33;7.28;;;;;;;-145.67;100.00;66521.78;4995261;28;20473;-70
2022/01/06 04:20:40;;;;;;;44.58;6.10;;;;;;;-145.67;100.00;66521.78;4995488;28;20104;-70
2022/01/06 04:23:05;;;;;;;30.67;4.38;;;;;;;-145.67;100.00;66521.78;4994961;28;20300;-69
2022/01/06 04:25:31;;;;;;;39.72;5.63;;;;;;;-145.67;100.00;66521.78;5004015;28;20073;-70
2022/01/06 04:27:58;;;;;;;50.92;6.45;;;;;;;-145.67;100.00;66521.78;5004895;28;22048;-69
2022/01/06 04:30:29;;;;;;;41.33;6.03;;;;;;;-145.67;100.00;66521.78;4994930;28;20742;-69
2022/01/06 04:32:54;;;;;;;58.38;6.88;;;;;;;-145.67;100.00;66521.78;4995338;28;20034;-70
2022/01/06 04:35:20;;;;;;;36.63;4.47;;;;;;;-145.67;100.00;66521.78;4995100;28;20049;-69
2022/01/06 04:37:45;;;;;;;31.60;3.90;;;;;;;-145.67;100.00;66521.78;4995903;28;20037;-70
2022/01/06 04:40:11;;;;;;;43.03;7.15;;;;;;;-145.67;100.00;66521.78;4993412;28;20759;-69
2022/01/06 04:42:39;;;;;;;45.22;5.65;;;;;;;-145.67;100.00;66521.78;5004509;28;20050;-70
2022/01/06 04:45:08;;;;;;;43.50;5.60;;;;;;;-145.67;100.00;66521.78;4995221;28;20125;-70
2022/01/06 04:47:33;;;;;;;41.97;5.40;;;;;;;-145.67;100.00;66521.78;4995350;28;20502;-70
2022/01/06 04:50:01;;;;;;;37.70;5.28;;;;;;;-145.67;100.00;66521.78;4992985;28;20085;-70
2022/01/06 04:52:29;;;;;;;30.00;4.10;;;;;;;-145.67;100.00;66521.78;4995246;28;20033;-70
2022/01/06 04:54:55;;;;;;;40.55;5.13;;;;;;;-145.67;100.00;66521.78;4995455;28;20119;-70
2022/01/06 04:57:25;;;;;;;47.80;6.15;;;;;;;-145.67;100.00;66521.78;4994575;28;20112;-70
2022/01/06 04:59:53;;;;;;;29.25;4.90;;;;;;;-145.67;100.00;66521.78;4994730;28;20087;-70
2022/01/06 05:02:19;;;;;;;20.58;3.35;;;;;;;-145.67;100.00;66521.78;4994819;28;20442;-70
2022/01/06 05:04:44;;;;;;;14.23;2.10;;;;;;;-145.67;100.00;66521.78;4994791;28;20072;-69
2022/01/06 05:07:14;;;;;;;20.05;3.15;;;;;;;-145.67;100.00;66521.78;4994720;28;20123;-69
2022/01/06 05:09:40;;;;;;;25.00;3.25;;;;;;;-145.67;100.00;66521.78;4995089;28;20147;-68
2022/01/06 05:12:06;;;;;;;28.02;3.58;;;;;;;-145.67;100.00;66521.78;4994345;28;20041;-68
2022/01/06 05:14:33;;;;;;;23.92;3.90;;;;;;;-145.67;100.00;66521.78;4995830;28;20029;-69
2022/01/06 05:17:07;;;;;;;17.45;2.60;;;;;;;-145.67;100.00;66521.78;4992968;28;20035;-68
2022/01/06 05:19:37;;;;;;;13.85;2.75;;;;;;;-145.67;100.00;66521.78;4994637;28;20486;-69
2022/01/06 05:22:05;;;;;;;16.52;2.90;;;;;;;-145.67;100.00;66521.78;4994125;28;20437;-69
2022/01/06 05:24:35;;;;;;;20.15;2.35;;;;;;;-145.67;100.00;66521.78;4999294;28;20034;-69
2022/01/06 05:27:01;;;;;;;25.73;3.53;;;;;;;-145.67;100.00;66521.78;4994922;28;20030;-70
2022/01/06 05:29:29;;;;;;;23.95;3.92;;;;;;;-145.67;100.00;66521.78;4992764;28;20040;-68
2022/01/06 05:31:57;;;;;;;40.03;4.80;;;;;;;-145.67;100.00;66521.78;5009026;28;20059;-69
2022/01/06 05:34:23;;;;;;;40.85;5.65;;;;;;;-145.67;100.00;66521.78;4993770;28;20550;-68
2022/01/06 05:36:48;;;;;;;24.58;3.42;;;;;;;-145.67;100.00;66521.78;4994342;28;20123;-68
2022/01/06 05:39:14;;;;;;;39.22;4.85;;;;;;;-145.67;100.00;66521.78;4991868;28;20125;-68
2022/01/06 05:41:42;;;;;;;42.50;5.55;;;;;;;-145.67;100.00;66521.78;4994002;28;20073;-69
2022/01/06 05:44:07;;;;;;;47.20;6.38;;;;;;;-145.67;100.00;66521.78;4994153;28;20132;-68
2022/01/06 05:46:33;;;;;;;32.22;4.05;;;;;;;-145.67;100.00;66521.78;4994415;28;20125;-68
2022/01/06 05:48:58;;;;;;;44.50;5.63;;;;;;;-145.67;100.00;66521.78;4994112;28;20041;-68
2022/01/06 05:51:24;;;;;;;35.55;4.97;;;;;;;-145.67;100.00;66521.78;4993959;28;20065;-68
2022/01/06 05:53:51;;;;;;;29.35;3.97;;;;;;;-145.67;100.00;66521.78;4993217;28;20045;-68
2022/01/06 05:56:17;;;;;;;33.50;3.55;;;;;;;-145.67;100.00;66521.78;4994032;28;20037;-69
2022/01/06 05:58:44;;;;;;;32.13;4.50;;;;;;;-145.67;100.00;66521.78;4992713;28;20045;-68
2022/01/06 06:01:10;;;;;;;32.10;4.85;;;;;;;-145.67;100.00;66521.78;4994193;28;20034;-68
2022/01/06 06:03:40;;;;;;;43.45;5.32;;;;;;;-145.67;100.00;66521.78;4993909;28;20353;-68
2022/01/06 06:06:08;;;;;;;34.17;4.55;;;;;;;-145.67;100.00;66521.78;4994073;28;20080;-69
2022/01/06 06:08:34;;;;;;;25.67;3.80;;;;;;;-145.67;100.00;66521.78;4993695;28;20132;-69
2022/01/06 06:11:02;;;;;;;26.75;4.03;;;;;;;-145.67;100.00;66521.78;4993705;28;20030;-69
2022/01/06 06:13:27;;;;;;;27.67;4.10;;;;;;;-145.67;100.00;66521.78;4992675;28;20477;-69
2022/01/06 06:15:53;;;;;;;37.30;6.03;;;;;;;-145.67;100.00;66521.78;4993924;28;20033;-69
2022/01/06 06:18:18;;;;;;;31.25;4.13;;;;;;;-145.67;100.00;66521.78;4999872;28;20061;-69
2022/01/06 06:20:46;;;;;;;49.92;6.13;;;;;;;-145.67;100.00;66521.78;4992927;28;20041;-68
2022/01/06 06:23:12;;;;;;;36.13;5.47;;;;;;;-145.67;100.00;66521.78;4993222;28;20095;-68
2022/01/06 06:25:37;;;;;;;35.10;4.28;;;;;;;-145.67;100.00;66521.78;4993931;28;20189;-70
2022/01/06 06:28:03;;;;;;;36.85;5.35;;;;;;;-145.67;100.00;66521.78;4999251;28;20045;-69
2022/01/06 06:30:28;;;;;;;31.58;3.85;;;;;;;-145.67;100.00;66521.78;5012969;28;20038;-69
2022/01/06 06:32:54;;;;;;;31.73;3.30;;;;;;;-145.67;100.00;66521.78;4997138;28;20059;-69
2022/01/06 06:35:19;;;;;;;26.98;4.05;;;;;;;-145.67;100.00;66521.78;5003150;28;20115;-69
2022/01/06 06:37:47;;;;;;;27.42;2.72;;;;;;;-145.67;100.00;66521.78;4998060;28;20029;-69
2022/01/06 06:40:19;;;;;;;18.73;3.38;;;;;;;-145.67;100.00;66521.78;4996831;28;20037;-69
2022/01/06 06:42:46;;;;;;;30.27;3.58;;;;;;;-145.67;100.00;66521.78;5011306;28;20429;-69
2022/01/06 06:45:12;;;;;;;31.77;3.88;;;;;;;-145.67;100.00;66521.78;4997171;28;20045;-69
2022/01/06 06:47:38;;;;;;;25.70;3.75;;;;;;;-145.67;100.00;66521.78;4997655;28;20037;-69
2022/01/06 06:50:04;;;;;;;24.95;3.83;;;;;;;-145.67;100.00;66521.78;4986823;28;20256;-68
2022/01/06 06:52:29;;;;;;;31.63;4.30;;;;;;;-145.67;100.00;66521.78;4997022;28;20030;-70
2022/01/06 06:54:55;;;;;;;19.02;2.70;;;;;;;-145.67;100.00;66521.78;5000945;28;20034;-70
2022/01/06 06:57:25;;;;;;;30.23;3.67;;;;;;;-145.67;100.00;66521.78;4995691;28;20792;-70
2022/01/06 06:59:53;;;;;;;32.38;3.53;;;;;;;-145.67;100.00;66521.78;4991854;28;20349;-70
2022/01/06 07:02:19;;;;;;;27.10;3.72;;;;;;;-145.67;100.00;66521.78;4996999;28;20200;-69
2022/01/06 07:04:48;;;;;;;24.70;4.65;;;;;;;-145.67;100.00;66521.78;4995874;28;20033;-70
2022/01/06 07:07:16;;;;;;;21.25;3.13;;;;;;;-145.67;100.00;66521.78;4996634;28;20040;-70
2022/01/06 07:09:44;;;;;;;29.20;3.45;;;;;;;-145.67;100.00;66521.78;4996857;28;20183;-68
2022/01/06 07:12:12;;;;;;;26.20;3.40;;;;;;;-145.67;100.00;66521.78;4996610;28;20038;-68
2022/01/06 07:14:38;;;;;;;25.98;2.95;;;;;;;-145.67;100.00;66521.78;4996797;28;20033;-68
2022/01/06 07:17:03;;;;;;;22.27;2.55;;;;;;;-145.67;100.00;66521.78;4996599;28;20450;-68
2022/01/06 07:19:31;;;;;;;31.17;3.95;;;;;;;-145.67;100.00;66521.78;5001795;28;20045;-68
2022/01/06 07:21:57;;;;;;;33.28;4.28;;;;;;;-145.67;100.00;66521.78;4997123;28;20300;-69
2022/01/06 07:24:22;;;;;;;24.08;3.53;;;;;;;-145.67;100.00;66521.78;4996660;28;20049;-69
2022/01/06 07:26:48;;;;;;;25.30;3.15;;;;;;;-145.67;100.00;66521.78;5002515;28;20051;-69
2022/01/06 07:29:15;;;;;;;16.20;2.78;;;;;;;-145.67;100.00;66521.78;4996384;28;20045;-69
2022/01/06 07:31:43;;;;;;;26.40;3.30;;;;;;;-145.67;100.00;66521.78;4986166;28;20052;-69
2022/01/06 07:34:08;;;;;;;20.13;3.15;;;;;;;-145.67;100.00;66521.78;4996349;28;20323;-70
2022/01/06 07:36:37;;;;;;;22.10;3.58;;;;;;;-145.67;100.00;66521.78;4996822;28;20087;-69
2022/01/06 07:39:03;;;;;;;26.75;3.63;;;;;;;-145.67;100.00;66521.78;4996224;28;20088;-69
2022/01/06 07:41:32;;;;;;;24.52;3.40;;;;;;;-145.67;100.00;66521.78;4996578;28;20311;-69
2022/01/06 07:43:57;;;;;;;25.98;3.13;;;;;;;-145.67;100.00;66521.78;4998953;28;20046;-69
2022/01/06 07:46:23;;;;;;;21.17;3.30;;;;;;;-145.67;100.00;66521.78;4996861;28;20262;-69
2022/01/06 07:48:56;;;;;;;17.52;3.08;;;;;;;-145.67;100.00;66521.78;5010658;28;20541;-69
2022/01/06 07:51:27;;;;;;;28.05;3.92;;;;;;;-145.67;100.00;66521.78;5004287;28;20493;-69
2022/01/06 07:53:53;;;;;;;22.65;3.92;;;;;;;-145.67;100.00;66521.78;5010914;28;20604;-69
2022/01/06 07:56:21;;;;;;;22.58;3.95;;;;;;;-145.67;100.00;66521.78;4996135;28;20468;-69
2022/01/06 07:58:49;;;;;;;40.00;4.03;;;;;;;-145.67;100.00;66521.78;4996384;28;20022;-69
2022/01/06 08:01:15;;;;;;;31.33;3.72;;;;;;;-145.67;100.00;66521.78;4995841;28;20087;-70
2022/01/06 08:03:41;;;;;;;23.30;3.10;;;;;;;-145.67;100.00;66521.78;4995953;28;20041;-68
2022/01/06 08:06:12;;;;;;;24.55;3.50;;;;;;;-145.67;100.00;66521.78;4994087;28;20048;-68
2022/01/06 08:08:43;;;;;;;25.60;3.58;;;;;;;-145.67;100.00;66521.78;4995882;28;20448;-70
2022/01/06 08:11:09;;;;;;;28.50;3.88;;;;;;;-145.67;100.00;66521.78;5005052;28;20048;-70
2022/01/06 08:13:34;;;;;;;29.25;3.72;;;;;;;-145.67;100.00;66521.78;4994292;28;20029;-69
2022/01/06 08:16:03;;;;;;;31.52;3.70;;;;;;;-145.67;100.00;66521.78;5010574;28;20042;-69
2022/01/06 08:18:28;;;;;;;26.30;4.30;;;;;;;-145.67;100.00;66521.78;4996282;28;22152;-69
2022/01/06 08:20:55;;;;;;;24.77;4.03;;;;;;;-145.67;100.00;66521.78;4994708;28;20163;-69
2022/01/06 08:23:23;;;;;;;21.67;3.45;;;;;;;-145.67;100.00;66521.78;5005099;28;20045;-70
2022/01/06 08:25:49;;;;;;;26.50;3.60;;;;;;;-145.67;100.00;66521.78;5004983;28;20045;-69
2022/01/06 08:28:17;;;;;;;32.03;3.88;;;;;;;-145.67;100.00;66521.78;4995319;28;20172;-70
2022/01/06 08:30:45;;;;;;;22.88;4.38;;;;;;;-145.67;100.00;66521.78;4995845;28;20091;-70
2022/01/06 08:33:10;;;;;;;27.25;3.90;;;;;;;-145.67;100.00;66521.78;5004183;28;20033;-69
2022/01/06 08:35:38;;;;;;;21.60;3.22;;;;;;;-145.67;100.00;66521.78;4995374;28;20440;-70
2022/01/06 08:38:04;;;;;;;15.30;3.22;;;;;;;-145.67;100.00;66521.78;4994835;28;20217;-70
2022/01/06 08:40:30;;;;;;;27.38;4.30;;;;;;;-145.67;100.00;66521.78;4995450;28;20240;-69
2022/01/06 08:42:56;;;;;;;24.02;3.30;;;;;;;-145.67;100.00;66521.78;4995486;28;20056;-73
2022/01/06 08:45:22;;;;;;;20.75;3.58;;;;;;;-145.67;100.00;66521.78;4995958;28;20274;-70
2022/01/06 08:47:47;;;;;;;21.42;3.90;;;;;;;-145.67;100.00;66521.78;4994548;28;20441;-70
2022/01/06 08:50:18;;;;;;;25.20;3.90;;;;;;;-145.67;100.00;66521.78;4994278;28;20123;-70
2022/01/06 08:52:45;;;;;;;29.92;4.35;;;;;;;-145.67;100.00;66521.78;4994772;28;20111;-70
2022/01/06 08:55:13;;;;;;;24.00;3.97;;;;;;;-145.67;100.00;66521.78;4994907;28;20056;-70
2022/01/06 08:57:41;;;;;;;24.02;3.38;;;;;;;-145.67;100.00;66521.78;4995082;28;20025;-72
2022/01/06 09:00:10;;;;;;;22.02;3.00;;;;;;;-145.67;100.00;66521.78;4994792;28;20053;-70
2022/01/06 09:02:36;;;;;;;31.85;4.03;;;;;;;-145.67;100.00;66521.78;5010132;28;20034;-70
2022/01/06 09:05:05;;;;;;;20.65;2.50;;;;;;;-145.67;100.00;66521.78;4994094;28;20203;-69
2022/01/06 09:07:36;;;;;;;20.35;3.10;;;;;;;-145.67;100.00;66521.78;4993822;28;20041;-69
2022/01/06 09:10:03;;;;;;;16.67;2.50;;;;;;;-145.67;100.00;66521.78;4992831;28;20434;-69
2022/01/06 09:12:29;;;;;;;25.15;2.70;;;;;;;-145.67;100.00;66521.78;4994941;28;20033;-69
2022/01/06 09:14:57;;;;;;;20.52;3.50;;;;;;;-145.67;100.00;66521.78;5009469;28;20033;-69
2022/01/06 09:17:22;;;;;;;17.02;2.50;;;;;;;-145.67;100.00;66521.78;4995010;28;20026;-68
2022/01/06 09:19:50;;;;;;;21.88;2.50;;;;;;;-145.67;100.00;66521.78;4994012;28;20208;-69
2022/01/06 09:22:16;;;;;;;20.55;3.38;;;;;;;-145.67;100.00;66521.78;4994250;28;20045;-68
2022/01/06 09:24:44;;;;;;;22.48;2.78;;;;;;;-145.67;100.00;66521.78;4994322;28;20076;-69
2022/01/06 09:27:09;;;;;;;22.25;2.38;;;;;;;-145.67;100.00;66521.78;5000469;28;20037;-68
2022/01/06 09:29:35;;;;;;;27.63;3.33;;;;;;;-145.67;100.00;66521.78;4994486;28;20032;-69
2022/01/06 09:32:04;;;;;;;22.25;2.85;;;;;;;-145.67;100.00;66521.78;4993442;28;20104;-68
2022/01/06 09:34:29;;;;;;;20.30;3.13;;;;;;;-145.67;100.00;66521.78;4994254;28;20033;-70
2022/01/06 09:36:57;;;;;;;26.95;3.42;;;;;;;-145.67;100.00;66521.78;4994203;28;20037;-70
2022/01/06 09:39:27;;;;;;;25.92;3.33;;;;;;;-145.67;100.00;66521.78;4994113;28;20486;-69
2022/01/06 09:41:55;;;;;;;20.77;2.90;;;;;;;-145.67;100.00;66521.78;4993946;28;20045;-69
2022/01/06 09:44:21;;;;;;;22.10;3.08;;;;;;;-145.67;100.00;66521.78;4993250;28;20069;-69
2022/01/06 09:46:46;;;;;;;19.60;2.53;;;;;;;-145.67;100.00;66521.78;4993484;28;20465;-70
2022/01/06 09:49:15;;;;;;;21.17;3.50;;;;;;;-145.67;100.00;66521.78;4992896;28;20749;-69
2022/01/06 09:51:40;;;;;;;19.17;2.70;;;;;;;-145.67;100.00;66521.78;5008262;28;20065;-70
2022/01/06 09:54:07;;;;;;;15.65;2.80;;;;;;;-145.67;100.00;66521.78;5002733;28;20041;-70
2022/01/06 09:56:32;;;;;;;19.88;3.45;;;;;;;-145.67;100.00;66521.78;4993665;28;20465;-70
2022/01/06 09:59:00;;;;;;;26.05;3.25;;;;;;;-145.67;100.00;66521.78;5007412;28;20034;-70
2022/01/06 10:01:25;;;;;;;20.17;2.42;;;;;;;-145.67;100.00;66521.78;4993185;28;20038;-69
2022/01/06 10:03:53;;;;;;;22.63;3.42;;;;;;;-145.67;100.00;66521.78;4991315;28;20029;-69
2022/01/06 10:06:24;;;;;;;25.45;3.58;;;;;;;-145.67;100.00;66521.78;4993055;28;20041;-68
2022/01/06 10:09:04;;;;;;;18.75;3.35;;;;;;;-145.67;100.00;66521.78;4993264;28;20049;-69
2022/01/06 10:11:34;;;;;;;18.63;2.58;;;;;;;-145.67;100.00;66521.78;4998380;28;20038;-69
2022/01/06 10:14:05;;;;;;;23.42;2.67;;;;;;;-145.67;100.00;66521.78;5002813;28;20037;-69
2022/01/06 10:16:31;;;;;;;22.70;3.33;;;;;;;-145.67;100.00;66521.78;4992889;28;20041;-69
2022/01/06 10:19:12;;;;;;;22.33;2.95;;;;;;;-145.67;100.00;66521.78;4998513;28;20038;-68
2022/01/06 10:21:43;;;;;;;30.38;3.28;;;;;;;-145.67;100.00;66521.78;4998824;28;20040;-69
2022/01/06 10:24:11;;;;;;;28.25;3.17;;;;;;;-145.67;100.00;66521.78;4992830;28;20752;-69
2022/01/06 10:26:38;;;;;;;20.08;2.95;;;;;;;-145.67;100.00;66521.78;4992335;28;20466;-69
2022/01/06 10:29:10;;;;;;;17.38;2.55;;;;;;;-145.67;100.00;66521.78;4993657;28;20113;-70
2022/01/06 10:31:36;;;;;;;20.48;2.75;;;;;;;-145.67;100.00;66521.78;5001739;28;20087;-68
2022/01/06 10:34:06;;;;;;;17.20;2.20;;;;;;;-145.67;100.00;66521.78;4996099;28;20556;-68
2022/01/06 10:36:32;;;;;;;20.05;2.65;;;;;;;-145.67;100.00;66521.78;5007141;28;20159;-68
2022/01/06 10:38:59;;;;;;;20.40;3.15;;;;;;;-145.67;100.00;66521.78;4993144;28;20034;-70
2022/01/06 10:41:28;;;;;;;25.60;2.83;;;;;;;-145.67;100.00;66521.78;5000801;28;20037;-68
2022/01/06 10:43:58;;;;;;;19.47;3.60;;;;;;;-145.67;100.00;66521.78;4954915;28;1089034;-70
2022/01/06 10:46:43;;;;;;;13.63;2.92;;;;;;;-145.67;100.00;66521.78;4997329;28;20099;-70
2022/01/06 10:49:14;;;;;;;11.13;2.08;;;;;;;-145.67;100.00;66521.78;4990965;28;20410;-68
2022/01/06 10:51:42;;;;;;;10.20;1.85;;;;;;;-145.67;100.00;66521.78;4975629;28;20036;-69
2022/01/06 10:54:24;;;;;;;8.25;1.20;;;;;;;-145.67;100.00;66521.78;4993812;28;20330;-69
2022/01/06 10:57:04;;;;;;;9.48;1.80;;;;;;;-145.67;100.00;66521.78;5008430;28;20659;-69
2022/01/06 10:59:33;;;;;;;10.60;1.48;;;;;;;-145.67;100.00;66521.78;5007682;28;20029;-69
2022/01/06 11:01:59;;;;;;;13.25;1.95;;;;;;;-145.67;100.00;66521.78;5008300;28;20117;-68
2022/01/06 11:04:25;;;;;;;9.73;2.33;;;;;;;-145.67;100.00;66521.78;4991143;28;20437;-68
2022/01/06 11:06:51;;;;;;;9.23;2.20;;;;;;;-145.67;100.00;66521.78;5008079;28;20037;-70
2022/01/06 11:09:19;;;;;;;16.95;5.00;;;;;;;-145.67;100.00;66521.78;4991601;28;20167;-68
2022/01/06 11:14:17;;;;;;;14.30;4.20;;;;;;;-145.67;100.00;66521.78;4993811;28;20042;-70
2022/01/06 11:16:43;;;;;;;;;;;;;;;-145.67;100.00;66521.78;5001401;28;20076;-69